West Frankfort, Illinois
Current Conditions -  °F | °C
As of 11:53 AM on Saturday 20 Dec 2014 (Local Time) from KMWA Reporting Station
Overcast Overcast  
Wind Chill: 36°   Ceiling: 3600
Heat Index: 41°   Visibility: 15mi
Dew Point: 32°   Wind: 7mph
Humidity: 70%   Direction: 110°ESE
Pressure: 30.29"   Gusts: NA
Location:  37.9°N, 88.92°W
Report Text: KMWA 201753Z 11006KT 15SM BKN036 OVC041 05/00 A3029
Loading
Personal Weather Stations






























Interactive Weather Map New forecast layout! Learn more

10-Day Weather Forecast

Advertisements
Track Severe Weather on mobile